Quick Links (Output Below):   Max & Min Temps   /   Climate Reports   /   Zone Forecasts
River Forecasts   /   Forestry Forecasts   /   Aviation Forecasts   /   Radars   /   Features

Terminal Aerodrome Forecast (El Dorado)

Pick a Site:
Arkadelphia | El Dorado | Fayetteville | Fort Smith | Harrison | Highfill | Hot Springs | Jonesboro
Little Rock | Monticello | Mountain Home | Pine Bluff | Texarkana
 Forecast 

KELD 271739Z 2718/2818 VRB05KT P6SM SKC
     FM280000 00000KT P6SM SKC
     FM281500 13006KT P6SM SKC=


 Latest METARs (Observations) 
How to Decode METARs
18Z KELD 271753Z AUTO 08003KT 10SM CLR 18/02 A3016 RMK AO2 SLP209
         T01830022 10183 20017 50005
         
17Z KELD 271653Z AUTO 05008KT 10SM CLR 17/03 A3017 RMK AO2 SLP215
         T01720028
         
16Z KELD 271553Z AUTO VRB05KT 10SM CLR 16/04 A3016 RMK AO2 SLP212
         T01610039
         
15Z KELD 271453Z AUTO 34003KT 10SM CLR 11/05 A3014 RMK AO2 SLP205
         T01110050 51024
         
14Z KELD 271353Z AUTO 00000KT 10SM CLR 04/02 A3012 RMK AO2 SLP199
         T00390022
         
13Z KELD 271253Z AUTO 00000KT 10SM CLR 03/01 A3010 RMK AO2 SLP191
         T00280011
         
12Z KELD 271153Z AUTO 00000KT 10SM CLR 03/01 A3007 RMK AO2 SLP182
         T00280011 10089 20022 53009
         
11Z KELD 271053Z AUTO 00000KT 10SM CLR 03/02 A3005 RMK AO2 SLP176
         T00330017
         
10Z KELD 270953Z AUTO 00000KT 10SM CLR 04/02 A3004 RMK AO2 SLP172
         T00390017
         
09Z KELD 270853Z AUTO 25003KT 10SM CLR 04/02 A3004 RMK AO2 SLP171
         T00390017 55001
         
***** Today's Observations (Above) *****


Back to Main Page
http://www.srh.noaa.gov/lzk/qfcst.php

USA.gov is the U.S. government's official web portal to all federal, state and local government web resources and services.